sensor_id;sensor_type;location;lat;lon;timestamp;pressure;altitude;pressure_sealevel;temperature;humidity
20987;BME280;10652;50.306;8.570;2022-10-03T00:26:37;98796.50;;;9.44;100.00
20987;BME280;10652;50.306;8.570;2022-10-03T00:35:23;98787.91;;;9.39;100.00
20987;BME280;10652;50.306;8.570;2022-10-03T00:44:18;98789.69;;;9.37;100.00
20987;BME280;10652;50.306;8.570;2022-10-03T01:02:23;98793.19;;;9.74;100.00
20987;BME280;10652;50.306;8.570;2022-10-03T01:06:39;98806.00;;;9.85;100.00
20987;BME280;10652;50.306;8.570;2022-10-03T01:10:51;98813.56;;;9.96;100.00
20987;BME280;10652;50.306;8.570;2022-10-03T01:15:06;98816.03;;;10.03;100.00
20987;BME280;10652;50.306;8.570;2022-10-03T01:19:47;98818.59;;;10.05;100.00
20987;BME280;10652;50.306;8.570;2022-10-03T01:28:40;98824.91;;;9.96;100.00
20987;BME280;10652;50.306;8.570;2022-10-03T01:33:09;98827.63;;;9.92;100.00
20987;BME280;10652;50.306;8.570;2022-10-03T01:45:43;98843.53;;;10.21;100.00
20987;BME280;10652;50.306;8.570;2022-10-03T01:49:53;98838.88;;;10.32;100.00
20987;BME280;10652;50.306;8.570;2022-10-03T01:54:00;98838.72;;;10.38;100.00
20987;BME280;10652;50.306;8.570;2022-10-03T01:58:12;98847.31;;;10.43;100.00
20987;BME280;10652;50.306;8.570;2022-10-03T02:02:35;98845.59;;;10.42;100.00
20987;BME280;10652;50.306;8.570;2022-10-03T02:06:48;98849.06;;;10.44;100.00
20987;BME280;10652;50.306;8.570;2022-10-03T02:11:01;98854.19;;;10.47;100.00
20987;BME280;10652;50.306;8.570;2022-10-03T02:19:17;98861.19;;;10.47;100.00
20987;BME280;10652;50.306;8.570;2022-10-03T03:08:19;98879.41;;;10.17;100.00
20987;BME280;10652;50.306;8.570;2022-10-03T03:12:43;98879.19;;;10.27;100.00
20987;BME280;10652;50.306;8.570;2022-10-03T03:17:05;98890.25;;;10.36;100.00
20987;BME280;10652;50.306;8.570;2022-10-03T03:26:11;98892.59;;;10.48;100.00
20987;BME280;10652;50.306;8.570;2022-10-03T03:30:21;98898.47;;;10.56;100.00
20987;BME280;10652;50.306;8.570;2022-10-03T03:38:54;98902.50;;;10.69;100.00
20987;BME280;10652;50.306;8.570;2022-10-03T03:43:48;98908.34;;;10.81;100.00
20987;BME280;10652;50.306;8.570;2022-10-03T03:56:23;98916.19;;;10.81;100.00
20987;BME280;10652;50.306;8.570;2022-10-03T04:05:17;98921.34;;;10.84;100.00
20987;BME280;10652;50.306;8.570;2022-10-03T04:14:17;98923.13;;;10.82;100.00
20987;BME280;10652;50.306;8.570;2022-10-03T04:18:59;98926.69;;;10.81;100.00
20987;BME280;10652;50.306;8.570;2022-10-03T04:23:27;98921.47;;;10.79;100.00
20987;BME280;10652;50.306;8.570;2022-10-03T04:40:37;98936.22;;;10.83;100.00
20987;BME280;10652;50.306;8.570;2022-10-03T04:49:11;98928.31;;;10.85;100.00
20987;BME280;10652;50.306;8.570;2022-10-03T04:53:27;98929.19;;;10.85;100.00
20987;BME280;10652;50.306;8.570;2022-10-03T04:57:43;98927.50;;;10.81;100.00
20987;BME280;10652;50.306;8.570;2022-10-03T05:06:58;98924.06;;;10.81;100.00
20987;BME280;10652;50.306;8.570;2022-10-03T05:11:33;98920.47;;;10.85;100.00
20987;BME280;10652;50.306;8.570;2022-10-03T05:20:23;98936.19;;;10.85;100.00
20987;BME280;10652;50.306;8.570;2022-10-03T05:24:41;98930.00;;;10.86;100.00
20987;BME280;10652;50.306;8.570;2022-10-03T05:28:56;98940.50;;;10.86;100.00
20987;BME280;10652;50.306;8.570;2022-10-03T05:42:50;98960.56;;;10.87;100.00
20987;BME280;10652;50.306;8.570;2022-10-03T05:55:24;98955.97;;;10.95;100.00
20987;BME280;10652;50.306;8.570;2022-10-03T06:12:59;98953.44;;;10.92;100.00
20987;BME280;10652;50.306;8.570;2022-10-03T06:22:27;98958.19;;;10.78;100.00
20987;BME280;10652;50.306;8.570;2022-10-03T06:40:14;98986.38;;;11.02;100.00
20987;BME280;10652;50.306;8.570;2022-10-03T06:44:56;98976.81;;;11.33;100.00
20987;BME280;10652;50.306;8.570;2022-10-03T06:49:23;98971.38;;;11.72;100.00
20987;BME280;10652;50.306;8.570;2022-10-03T07:02:33;98979.56;;;11.90;100.00
20987;BME280;10652;50.306;8.570;2022-10-03T07:11:03;98990.13;;;11.89;100.00
20987;BME280;10652;50.306;8.570;2022-10-03T07:15:56;98991.00;;;11.89;100.00
20987;BME280;10652;50.306;8.570;2022-10-03T07:29:16;99002.63;;;12.10;100.00
20987;BME280;10652;50.306;8.570;2022-10-03T07:38:30;99004.97;;;12.19;100.00
20987;BME280;10652;50.306;8.570;2022-10-03T07:43:22;99003.06;;;12.24;100.00
20987;BME280;10652;50.306;8.570;2022-10-03T09:19:03;99062.22;;;14.18;80.00
20987;BME280;10652;50.306;8.570;2022-10-03T09:36:28;99075.53;;;14.39;78.45
20987;BME280;10652;50.306;8.570;2022-10-03T09:58:44;99067.56;;;15.27;68.05
20987;BME280;10652;50.306;8.570;2022-10-03T10:07:30;99072.63;;;15.33;66.64
20987;BME280;10652;50.306;8.570;2022-10-03T10:12:00;99067.53;;;15.29;68.10
20987;BME280;10652;50.306;8.570;2022-10-03T10:16:31;99071.47;;;15.19;68.70
20987;BME280;10652;50.306;8.570;2022-10-03T10:25:42;99054.31;;;15.71;67.62
20987;BME280;10652;50.306;8.570;2022-10-03T10:39:18;99035.56;;;16.72;62.68
20987;BME280;10652;50.306;8.570;2022-10-03T11:05:39;99045.38;;;15.93;60.60
20987;BME280;10652;50.306;8.570;2022-10-03T11:48:41;99027.03;;;17.37;56.84
20987;BME280;10652;50.306;8.570;2022-10-03T12:01:31;99016.88;;;16.94;56.52
20987;BME280;10652;50.306;8.570;2022-10-03T12:14:44;99012.69;;;17.24;56.56
20987;BME280;10652;50.306;8.570;2022-10-03T12:18:51;99018.91;;;17.57;55.80
20987;BME280;10652;50.306;8.570;2022-10-03T12:23:16;99006.66;;;17.89;54.37
20987;BME280;10652;50.306;8.570;2022-10-03T12:31:39;98997.59;;;18.42;52.82
20987;BME280;10652;50.306;8.570;2022-10-03T12:35:51;98995.28;;;18.51;52.71
20987;BME280;10652;50.306;8.570;2022-10-03T12:40:17;98984.13;;;18.45;51.93
20987;BME280;10652;50.306;8.570;2022-10-03T12:49:06;98999.94;;;18.31;51.13
20987;BME280;10652;50.306;8.570;2022-10-03T12:57:33;98973.78;;;18.40;52.24
20987;BME280;10652;50.306;8.570;2022-10-03T13:06:37;98983.44;;;18.10;52.98
20987;BME280;10652;50.306;8.570;2022-10-03T13:15:40;98990.66;;;17.91;55.97
20987;BME280;10652;50.306;8.570;2022-10-03T13:19:54;98989.00;;;17.72;55.09
20987;BME280;10652;50.306;8.570;2022-10-03T13:24:34;98978.59;;;17.35;56.85
20987;BME280;10652;50.306;8.570;2022-10-03T13:33:15;98977.75;;;17.34;55.22
20987;BME280;10652;50.306;8.570;2022-10-03T13:37:30;98989.31;;;17.32;55.28
20987;BME280;10652;50.306;8.570;2022-10-03T13:42:02;98983.56;;;17.41;55.61
20987;BME280;10652;50.306;8.570;2022-10-03T13:46:25;98975.75;;;17.55;54.42
20987;BME280;10652;50.306;8.570;2022-10-03T13:50:54;98979.13;;;17.92;54.67
20987;BME280;10652;50.306;8.570;2022-10-03T13:59:26;98974.66;;;18.25;52.44
20987;BME280;10652;50.306;8.570;2022-10-03T14:07:52;98969.97;;;18.30;53.96
20987;BME280;10652;50.306;8.570;2022-10-03T14:12:11;98961.03;;;18.31;52.88
20987;BME280;10652;50.306;8.570;2022-10-03T14:16:38;98973.00;;;18.07;52.73
20987;BME280;10652;50.306;8.570;2022-10-03T14:29:27;98974.81;;;17.56;55.04
20987;BME280;10652;50.306;8.570;2022-10-03T14:37:48;98971.94;;;17.78;55.51
20987;BME280;10652;50.306;8.570;2022-10-03T14:45:57;98960.16;;;17.84;55.20
20987;BME280;10652;50.306;8.570;2022-10-03T14:50:03;98966.50;;;17.64;54.47
20987;BME280;10652;50.306;8.570;2022-10-03T14:54:26;98966.44;;;17.31;55.02
20987;BME280;10652;50.306;8.570;2022-10-03T14:58:35;98959.91;;;17.21;56.67
20987;BME280;10652;50.306;8.570;2022-10-03T15:02:44;98964.81;;;17.11;56.51
20987;BME280;10652;50.306;8.570;2022-10-03T15:06:50;98965.66;;;16.95;56.91
20987;BME280;10652;50.306;8.570;2022-10-03T15:10:57;98959.88;;;16.86;57.22
20987;BME280;10652;50.306;8.570;2022-10-03T15:15:12;98954.59;;;16.86;57.04
20987;BME280;10652;50.306;8.570;2022-10-03T15:19:38;98948.44;;;16.86;56.73
20987;BME280;10652;50.306;8.570;2022-10-03T15:23:43;98951.03;;;16.87;56.30
20987;BME280;10652;50.306;8.570;2022-10-03T15:27:49;98943.47;;;16.80;56.69
20987;BME280;10652;50.306;8.570;2022-10-03T15:31:54;98950.56;;;16.79;56.48
20987;BME280;10652;50.306;8.570;2022-10-03T15:36:27;98939.78;;;16.65;56.57
20987;BME280;10652;50.306;8.570;2022-10-03T15:40:34;98935.22;;;16.50;56.85
20987;BME280;10652;50.306;8.570;2022-10-03T15:44:50;98938.88;;;16.48;57.85
20987;BME280;10652;50.306;8.570;2022-10-03T15:48:54;98939.22;;;16.40;58.21
20987;BME280;10652;50.306;8.570;2022-10-03T15:53:00;98934.69;;;16.25;59.10
20987;BME280;10652;50.306;8.570;2022-10-03T15:57:27;98942.41;;;16.11;59.95
20987;BME280;10652;50.306;8.570;2022-10-03T16:01:35;98947.84;;;16.08;60.48
20987;BME280;10652;50.306;8.570;2022-10-03T16:05:52;98938.53;;;15.99;61.63
20987;BME280;10652;50.306;8.570;2022-10-03T16:10:20;98934.50;;;15.92;62.21
20987;BME280;10652;50.306;8.570;2022-10-03T16:14:27;98931.56;;;15.79;62.25
20987;BME280;10652;50.306;8.570;2022-10-03T16:18:48;98922.13;;;15.74;63.45
20987;BME280;10652;50.306;8.570;2022-10-03T16:22:55;98918.84;;;15.69;63.53
20987;BME280;10652;50.306;8.570;2022-10-03T16:27:05;98920.06;;;15.62;63.78
20987;BME280;10652;50.306;8.570;2022-10-03T16:31:27;98918.69;;;15.53;64.83
20987;BME280;10652;50.306;8.570;2022-10-03T16:35:40;98930.59;;;15.41;65.35
20987;BME280;10652;50.306;8.570;2022-10-03T16:39:51;98929.38;;;15.30;66.03
20987;BME280;10652;50.306;8.570;2022-10-03T16:43:57;98917.56;;;15.18;66.40
20987;BME280;10652;50.306;8.570;2022-10-03T16:48:02;98919.03;;;15.05;67.37
20987;BME280;10652;50.306;8.570;2022-10-03T16:52:32;98916.06;;;14.92;68.08
20987;BME280;10652;50.306;8.570;2022-10-03T16:56:40;98911.56;;;14.74;68.85
20987;BME280;10652;50.306;8.570;2022-10-03T17:01:00;98902.41;;;14.62;70.00
20987;BME280;10652;50.306;8.570;2022-10-03T17:05:23;98899.19;;;14.54;70.70
20987;BME280;10652;50.306;8.570;2022-10-03T17:13:49;98900.88;;;14.35;72.39
20987;BME280;10652;50.306;8.570;2022-10-03T17:22:28;98897.47;;;14.10;74.26
20987;BME280;10652;50.306;8.570;2022-10-03T17:26:36;98900.53;;;13.99;75.11
20987;BME280;10652;50.306;8.570;2022-10-03T17:30:49;98902.72;;;13.88;75.75
20987;BME280;10652;50.306;8.570;2022-10-03T17:34:59;98899.53;;;13.80;76.27
20987;BME280;10652;50.306;8.570;2022-10-03T17:39:10;98900.09;;;13.65;77.05
20987;BME280;10652;50.306;8.570;2022-10-03T17:43:25;98904.13;;;13.52;77.83
20987;BME280;10652;50.306;8.570;2022-10-03T17:51:57;98896.25;;;13.27;79.89
20987;BME280;10652;50.306;8.570;2022-10-03T17:56:09;98895.84;;;13.14;80.25
20987;BME280;10652;50.306;8.570;2022-10-03T18:00:22;98902.41;;;13.01;81.31
20987;BME280;10652;50.306;8.570;2022-10-03T18:04:35;98904.59;;;12.90;81.97
20987;BME280;10652;50.306;8.570;2022-10-03T18:08:40;98908.31;;;12.83;82.89
20987;BME280;10652;50.306;8.570;2022-10-03T18:12:42;98897.16;;;12.76;83.08
20987;BME280;10652;50.306;8.570;2022-10-03T18:17:13;98901.22;;;12.60;83.60
20987;BME280;10652;50.306;8.570;2022-10-03T18:26:00;98906.63;;;12.29;85.81
20987;BME280;10652;50.306;8.570;2022-10-03T18:35:26;98899.28;;;12.13;87.99
20987;BME280;10652;50.306;8.570;2022-10-03T18:39:32;98899.72;;;11.99;87.93
20987;BME280;10652;50.306;8.570;2022-10-03T18:43:37;98894.16;;;11.80;87.27
20987;BME280;10652;50.306;8.570;2022-10-03T18:47:55;98899.41;;;11.49;87.97
20987;BME280;10652;50.306;8.570;2022-10-03T18:52:12;98897.28;;;11.33;88.48
20987;BME280;10652;50.306;8.570;2022-10-03T18:56:23;98899.41;;;11.20;89.93
20987;BME280;10652;50.306;8.570;2022-10-03T19:00:28;98896.66;;;11.25;90.83
20987;BME280;10652;50.306;8.570;2022-10-03T19:04:39;98904.53;;;11.23;90.71
20987;BME280;10652;50.306;8.570;2022-10-03T19:08:49;98902.19;;;11.14;91.76
20987;BME280;10652;50.306;8.570;2022-10-03T19:12:59;98903.16;;;11.10;92.81
20987;BME280;10652;50.306;8.570;2022-10-03T19:17:21;98889.31;;;11.05;94.21
20987;BME280;10652;50.306;8.570;2022-10-03T19:21:27;98887.13;;;10.90;92.67
20987;BME280;10652;50.306;8.570;2022-10-03T19:25:29;98893.56;;;10.77;92.46
20987;BME280;10652;50.306;8.570;2022-10-03T19:29:45;98896.50;;;10.66;92.93
20987;BME280;10652;50.306;8.570;2022-10-03T19:33:51;98895.88;;;10.56;93.29
20987;BME280;10652;50.306;8.570;2022-10-03T19:38:05;98897.06;;;10.43;92.96
20987;BME280;10652;50.306;8.570;2022-10-03T19:42:23;98886.97;;;10.28;93.03
20987;BME280;10652;50.306;8.570;2022-10-03T19:50:40;98878.56;;;10.15;94.68
20987;BME280;10652;50.306;8.570;2022-10-03T19:54:48;98882.03;;;10.14;94.85
20987;BME280;10652;50.306;8.570;2022-10-03T19:59:13;98870.91;;;10.05;93.49
20987;BME280;10652;50.306;8.570;2022-10-03T20:03:28;98873.97;;;9.87;94.13
20987;BME280;10652;50.306;8.570;2022-10-03T20:07:51;98889.84;;;9.79;94.44
20987;BME280;10652;50.306;8.570;2022-10-03T20:11:59;98887.19;;;9.80;96.65
20987;BME280;10652;50.306;8.570;2022-10-03T20:16:03;98876.88;;;9.74;96.36
20987;BME280;10652;50.306;8.570;2022-10-03T20:20:07;98870.31;;;9.55;94.94
20987;BME280;10652;50.306;8.570;2022-10-03T20:24:20;98881.34;;;9.29;94.88
20987;BME280;10652;50.306;8.570;2022-10-03T20:28:38;98877.25;;;9.16;96.35
20987;BME280;10652;50.306;8.570;2022-10-03T20:32:45;98877.09;;;9.22;98.12
20987;BME280;10652;50.306;8.570;2022-10-03T20:36:50;98878.03;;;9.20;96.81
20987;BME280;10652;50.306;8.570;2022-10-03T20:41:05;98886.41;;;8.94;96.47
20987;BME280;10652;50.306;8.570;2022-10-03T20:49:25;98880.16;;;9.00;98.47
20987;BME280;10652;50.306;8.570;2022-10-03T20:53:30;98893.13;;;9.06;99.11
20987;BME280;10652;50.306;8.570;2022-10-03T20:57:40;98886.34;;;8.97;97.85
20987;BME280;10652;50.306;8.570;2022-10-03T21:01:46;98880.34;;;8.90;98.61
20987;BME280;10652;50.306;8.570;2022-10-03T21:05:51;98877.75;;;8.90;98.31
20987;BME280;10652;50.306;8.570;2022-10-03T21:10:07;98864.75;;;8.87;99.46
20987;BME280;10652;50.306;8.570;2022-10-03T21:14:21;98870.75;;;8.92;99.60
20987;BME280;10652;50.306;8.570;2022-10-03T21:18:36;98861.16;;;8.95;99.27
20987;BME280;10652;50.306;8.570;2022-10-03T21:22:42;98874.22;;;8.93;98.79
20987;BME280;10652;50.306;8.570;2022-10-03T21:26:47;98870.03;;;8.84;98.87
20987;BME280;10652;50.306;8.570;2022-10-03T21:35:26;98861.59;;;8.72;99.02
20987;BME280;10652;50.306;8.570;2022-10-03T21:44:09;98873.78;;;8.71;98.88
20987;BME280;10652;50.306;8.570;2022-10-03T21:48:27;98857.59;;;8.51;97.87
20987;BME280;10652;50.306;8.570;2022-10-03T22:01:56;98865.69;;;8.36;99.76
20987;BME280;10652;50.306;8.570;2022-10-03T22:06:19;98864.09;;;8.26;99.16
20987;BME280;10652;50.306;8.570;2022-10-03T22:10:26;98854.50;;;8.29;100.00
20987;BME280;10652;50.306;8.570;2022-10-03T22:32:02;98824.19;;;8.21;99.45
20987;BME280;10652;50.306;8.570;2022-10-03T22:36:08;98819.69;;;8.27;99.66
20987;BME280;10652;50.306;8.570;2022-10-03T22:40:12;98806.56;;;8.35;99.65
20987;BME280;10652;50.306;8.570;2022-10-03T22:44:15;98803.81;;;8.42;99.10
20987;BME280;10652;50.306;8.570;2022-10-03T22:48:25;98806.50;;;8.39;97.13
20987;BME280;10652;50.306;8.570;2022-10-03T22:52:35;98790.59;;;8.01;95.99
20987;BME280;10652;50.306;8.570;2022-10-03T22:56:46;98802.84;;;7.96;97.54
20987;BME280;10652;50.306;8.570;2022-10-03T23:00:50;98794.22;;;7.92;98.87
20987;BME280;10652;50.306;8.570;2022-10-03T23:05:15;98798.59;;;7.90;99.66
20987;BME280;10652;50.306;8.570;2022-10-03T23:09:34;98801.19;;;7.92;99.21
20987;BME280;10652;50.306;8.570;2022-10-03T23:13:42;98774.41;;;7.82;98.52
20987;BME280;10652;50.306;8.570;2022-10-03T23:22:20;98784.09;;;7.73;99.07
20987;BME280;10652;50.306;8.570;2022-10-03T23:30:53;98782.34;;;7.76;98.70
20987;BME280;10652;50.306;8.570;2022-10-03T23:39:42;98782.19;;;7.29;96.85
20987;BME280;10652;50.306;8.570;2022-10-03T23:43:50;98777.22;;;7.10;96.83
20987;BME280;10652;50.306;8.570;2022-10-03T23:48:05;98789.50;;;7.02;99.89
20987;BME280;10652;50.306;8.570;2022-10-03T23:52:17;98796.31;;;7.11;100.00
